createdAt,value
2023-04-15T00:02:33.275Z,0.25
2023-04-15T00:06:38.376Z,0.35
2023-04-15T00:10:44.278Z,0.30
2023-04-15T00:14:47.258Z,0.30
2023-04-15T00:18:50.335Z,0.30
2023-04-15T00:22:53.633Z,0.20
2023-04-15T00:26:58.222Z,0.25
2023-04-15T00:31:01.264Z,0.20
2023-04-15T00:35:04.478Z,0.30
2023-04-15T00:39:07.713Z,0.20
2023-04-15T00:43:12.811Z,0.20
2023-04-15T00:47:17.581Z,0.20
2023-04-15T00:51:20.629Z,0.22
2023-04-15T00:55:23.729Z,0.20
2023-04-15T00:59:28.848Z,0.20
2023-04-15T01:03:32.393Z,0.28
2023-04-15T01:07:35.863Z,0.30
2023-04-15T01:11:39.050Z,0.20
2023-04-15T01:15:46.227Z,0.30
2023-04-15T01:19:50.117Z,0.25
2023-04-15T01:23:54.555Z,0.20
2023-04-15T01:28:00.331Z,0.30
2023-04-15T01:32:04.554Z,0.47
2023-04-15T01:36:10.064Z,0.17
2023-04-15T01:40:13.907Z,0.20
2023-04-15T01:44:18.443Z,0.40
2023-04-15T01:48:21.510Z,0.40
2023-04-15T01:52:24.604Z,0.20
2023-04-15T01:56:27.793Z,0.25
2023-04-15T02:00:32.732Z,0.20
2023-04-15T02:04:36.151Z,0.10
2023-04-15T02:08:39.272Z,0.30
2023-04-15T02:12:44.163Z,0.20
2023-04-15T02:16:49.330Z,0.38
2023-04-15T02:20:53.529Z,0.20
2023-04-15T02:24:56.525Z,0.40
2023-04-15T02:29:00.047Z,0.28
2023-04-15T02:33:05.237Z,0.35
2023-04-15T02:37:08.528Z,0.38
2023-04-15T02:41:12.631Z,0.30
2023-04-15T02:45:15.776Z,0.30
2023-04-15T02:49:21.983Z,0.30
2023-04-15T02:53:26.111Z,0.35
2023-04-15T02:57:29.826Z,0.35
2023-04-15T03:01:37.104Z,0.30
2023-04-15T03:05:41.598Z,0.22
2023-04-15T03:09:44.730Z,0.30
2023-04-15T03:13:48.519Z,0.40
2023-04-15T03:18:11.833Z,0.30
2023-04-15T03:22:18.168Z,0.32
2023-04-15T03:26:29.496Z,0.30
2023-04-15T03:30:36.593Z,0.43
2023-04-15T03:34:39.857Z,0.52
2023-04-15T03:38:44.345Z,0.50
2023-04-15T03:42:47.608Z,0.47
2023-04-15T03:46:50.969Z,0.40
2023-04-15T03:50:54.501Z,0.43
2023-04-15T03:54:58.963Z,0.45
2023-04-15T03:59:02.359Z,0.50
2023-04-15T04:03:05.875Z,0.60
2023-04-15T04:07:09.089Z,0.50
2023-04-15T04:11:13.613Z,0.68
2023-04-15T04:15:17.077Z,0.50
2023-04-15T04:19:20.392Z,0.50
2023-04-15T04:23:23.462Z,0.68
2023-04-15T04:27:27.898Z,0.80
2023-04-15T04:31:31.076Z,0.80
2023-04-15T04:35:37.667Z,0.73
2023-04-15T04:39:40.783Z,0.70
2023-04-15T04:43:45.184Z,0.80
2023-04-15T04:47:48.679Z,0.70
2023-04-15T04:51:52.334Z,0.98
2023-04-15T04:55:55.521Z,0.70
2023-04-15T05:00:00.011Z,0.80
2023-04-15T05:04:05.323Z,0.95
2023-04-15T05:08:08.642Z,0.85
2023-04-15T05:12:15.030Z,0.88
2023-04-15T05:16:20.103Z,0.80
2023-04-15T05:20:23.224Z,0.90
2023-04-15T05:24:26.281Z,1.00
2023-04-15T05:28:29.275Z,0.90
2023-04-15T05:32:33.699Z,1.15
2023-04-15T05:36:36.756Z,0.82
2023-04-15T05:40:39.825Z,1.05
2023-04-15T05:44:42.845Z,0.90
2023-04-15T05:48:47.476Z,0.95
2023-04-15T05:52:50.481Z,1.60
2023-04-15T05:56:53.956Z,1.25
2023-04-15T06:00:57.427Z,1.42
2023-04-15T06:05:02.186Z,1.38
2023-04-15T06:09:05.583Z,1.10
2023-04-15T06:13:09.075Z,1.10
2023-04-15T06:17:14.932Z,1.35
2023-04-15T06:21:19.335Z,1.23
2023-04-15T06:25:22.624Z,1.30
2023-04-15T06:29:26.118Z,1.17
2023-04-15T06:33:29.659Z,1.10
2023-04-15T06:37:34.031Z,1.17
2023-04-15T06:41:37.456Z,1.20
2023-04-15T06:45:40.662Z,1.30
2023-04-15T06:49:44.945Z,1.30
2023-04-15T06:53:49.357Z,1.20
2023-04-15T06:57:52.627Z,1.38
2023-04-15T07:01:55.743Z,1.20
2023-04-15T07:05:58.943Z,1.00
2023-04-15T07:10:03.436Z,1.10
2023-04-15T07:14:06.798Z,0.90
2023-04-15T07:18:09.858Z,1.02
2023-04-15T07:22:12.902Z,0.80
2023-04-15T07:26:17.315Z,0.57
2023-04-15T07:30:20.507Z,0.50
2023-04-15T07:34:23.646Z,0.90
2023-04-15T07:38:27.342Z,0.68
2023-04-15T07:42:31.956Z,0.63
2023-04-15T07:46:35.037Z,0.70
2023-04-15T07:50:38.157Z,0.60
2023-04-15T07:54:41.192Z,0.50
2023-04-15T07:58:45.888Z,0.73
2023-04-15T08:02:49.935Z,0.55
2023-04-15T08:06:53.586Z,0.50
2023-04-15T08:10:56.680Z,0.52
2023-04-15T08:15:02.161Z,0.47
2023-04-15T08:19:05.685Z,0.60
2023-04-15T08:23:08.869Z,0.50
2023-04-15T08:27:11.943Z,0.60
2023-04-15T08:31:18.093Z,0.40
2023-04-15T08:35:21.245Z,0.40
2023-04-15T08:39:24.284Z,0.35
2023-04-15T08:43:30.686Z,0.50
2023-04-15T08:47:37.549Z,0.40
2023-04-15T08:51:41.576Z,0.57
2023-04-15T08:55:46.677Z,0.60
2023-04-15T08:59:50.969Z,0.30
2023-04-15T09:03:55.729Z,0.50
2023-04-15T09:07:59.133Z,0.40
2023-04-15T09:12:03.042Z,0.47
2023-04-15T09:16:08.379Z,0.50
2023-04-15T09:20:15.515Z,0.60
2023-04-15T09:24:18.576Z,0.52
2023-04-15T09:28:26.871Z,0.50
2023-04-15T09:32:29.921Z,0.52
2023-04-15T09:36:52.887Z,0.45
2023-04-15T09:40:56.373Z,0.50
2023-04-15T09:45:10.096Z,1.13
2023-04-15T09:49:13.978Z,0.30
2023-04-15T09:53:20.248Z,0.32
2023-04-15T09:57:23.667Z,0.52
2023-04-15T10:01:27.155Z,0.60
2023-04-15T10:05:31.661Z,0.70
2023-04-15T10:09:37.392Z,0.40
2023-04-15T10:13:42.721Z,0.60
2023-04-15T10:17:46.873Z,0.70
2023-04-15T10:21:51.492Z,0.57
2023-04-15T10:25:56.211Z,0.40
2023-04-15T10:30:01.670Z,0.60
2023-04-15T10:34:06.707Z,0.50
2023-04-15T10:38:35.225Z,0.63
2023-04-15T10:42:39.696Z,0.50
2023-04-15T10:46:45.161Z,0.80
2023-04-15T10:50:58.095Z,0.68
2023-04-15T10:55:05.604Z,0.70
2023-04-15T10:59:10.653Z,0.60
2023-04-15T11:03:14.129Z,0.15
2023-04-15T11:07:17.319Z,0.40
2023-04-15T11:11:20.864Z,0.52
2023-04-15T11:15:30.630Z,0.60
2023-04-15T11:19:40.135Z,0.57
2023-04-15T11:23:47.043Z,0.70
2023-04-15T11:27:50.641Z,0.60
2023-04-15T11:31:55.391Z,0.60
2023-04-15T11:35:58.399Z,0.50
2023-04-15T11:40:04.528Z,0.52
2023-04-15T11:44:17.967Z,0.60
2023-04-15T11:48:23.990Z,0.60
2023-04-15T11:52:27.175Z,0.60
2023-04-15T11:56:30.362Z,0.60
2023-04-15T12:00:34.022Z,0.80
2023-04-15T12:04:39.110Z,0.68
2023-04-15T12:09:01.511Z,0.80
2023-04-15T12:13:09.208Z,0.60
2023-04-15T12:17:13.293Z,0.70
2023-04-15T12:21:20.411Z,0.75
2023-04-15T12:25:35.531Z,0.90
2023-04-15T12:29:41.055Z,0.50
2023-04-15T12:33:44.450Z,0.25
2023-04-15T12:37:49.104Z,0.25
2023-04-15T12:41:54.488Z,0.30
2023-04-15T12:45:57.639Z,0.35
2023-04-15T12:50:01.025Z,0.38
2023-04-15T12:54:05.864Z,0.20
2023-04-15T12:58:09.410Z,0.40
2023-04-15T13:02:12.785Z,0.30
2023-04-15T13:06:16.166Z,0.47
2023-04-15T13:10:21.300Z,0.30
2023-04-15T13:14:24.504Z,0.32
2023-04-15T13:18:27.684Z,0.45
2023-04-15T13:22:30.724Z,0.35
2023-04-15T13:26:35.166Z,0.35
2023-04-15T13:30:38.807Z,0.50
2023-04-15T13:34:41.773Z,0.32
2023-04-15T13:38:44.862Z,0.30
2023-04-15T13:42:49.554Z,0.40
2023-04-15T13:46:53.272Z,0.45
2023-04-15T13:50:56.323Z,0.40
2023-04-15T13:55:08.211Z,0.30
2023-04-15T13:59:23.844Z,0.30
2023-04-15T14:03:27.034Z,0.40
2023-04-15T14:07:31.622Z,0.40
2023-04-15T14:11:35.449Z,0.47
2023-04-15T14:15:40.100Z,0.55
2023-04-15T14:19:43.546Z,0.28
2023-04-15T14:23:46.760Z,0.40
2023-04-15T14:27:50.028Z,0.40
2023-04-15T14:32:04.473Z,0.30
2023-04-15T14:36:14.981Z,0.40
2023-04-15T14:40:18.070Z,0.40
2023-04-15T14:44:21.160Z,0.40
2023-04-15T14:48:25.795Z,0.32
2023-04-15T14:52:28.942Z,0.40
2023-04-15T14:56:32.044Z,0.38
2023-04-15T15:00:35.418Z,0.40
2023-04-15T15:04:40.755Z,0.60
2023-04-15T15:08:44.271Z,0.32
2023-04-15T15:12:47.516Z,0.40
2023-04-15T15:16:51.040Z,0.30
2023-04-15T15:20:55.567Z,0.50
2023-04-15T15:24:59.287Z,0.55
2023-04-15T15:29:02.559Z,0.52
2023-04-15T15:33:05.895Z,0.38
2023-04-15T15:37:10.535Z,0.50
2023-04-15T15:41:13.707Z,0.80
2023-04-15T15:45:17.248Z,0.65
2023-04-15T15:49:20.458Z,0.60
2023-04-15T15:53:25.928Z,0.57
2023-04-15T15:57:29.102Z,0.50
2023-04-15T16:01:32.142Z,0.65
2023-04-15T16:05:35.496Z,0.70
2023-04-15T16:09:41.136Z,0.60
2023-04-15T16:13:44.333Z,0.82
2023-04-15T16:17:47.716Z,0.63
2023-04-15T16:21:50.952Z,0.50
2023-04-15T16:25:55.343Z,0.80
2023-04-15T16:29:58.413Z,0.60
2023-04-15T16:34:01.518Z,0.60
2023-04-15T16:38:04.792Z,0.50
2023-04-15T16:42:09.190Z,0.63
2023-04-15T16:46:12.201Z,0.63
2023-04-15T16:50:15.792Z,0.50
2023-04-15T16:54:18.878Z,0.40
2023-04-15T16:58:23.322Z,0.55
2023-04-15T17:02:26.649Z,0.68
2023-04-15T17:06:30.775Z,0.55
2023-04-15T17:10:33.901Z,0.50
2023-04-15T17:14:38.971Z,0.52
2023-04-15T17:18:42.101Z,0.60
2023-04-15T17:22:45.376Z,0.60
2023-04-15T17:26:48.751Z,0.70
2023-04-15T17:30:53.170Z,0.60
2023-04-15T17:34:56.144Z,0.60
2023-04-15T17:38:59.119Z,0.60
2023-04-15T17:43:02.036Z,0.50
2023-04-15T17:47:06.573Z,0.50
2023-04-15T17:51:09.473Z,0.55
2023-04-15T17:55:12.564Z,0.70
2023-04-15T17:59:15.510Z,0.65
2023-04-15T18:03:19.953Z,0.85
2023-04-15T18:07:23.029Z,0.68
2023-04-15T18:11:26.668Z,0.70
2023-04-15T18:15:29.640Z,0.75
2023-04-15T18:19:34.103Z,0.60
2023-04-15T18:23:37.080Z,0.90
2023-04-15T18:27:40.223Z,0.57
2023-04-15T18:31:43.253Z,0.90
2023-04-15T18:35:49.869Z,0.50
2023-04-15T18:39:54.098Z,0.70
2023-04-15T18:43:57.134Z,0.77
2023-04-15T18:48:00.130Z,0.80
2023-04-15T18:52:05.056Z,0.70
2023-04-15T18:56:08.332Z,0.90
2023-04-15T19:00:12.757Z,1.00
2023-04-15T19:04:15.789Z,0.90
2023-04-15T19:08:20.176Z,1.02
2023-04-15T19:12:23.272Z,0.90
2023-04-15T19:16:26.235Z,0.90
2023-04-15T19:20:29.309Z,0.90
2023-04-15T19:24:34.025Z,1.13
2023-04-15T19:28:36.986Z,0.90
2023-04-15T19:32:39.959Z,1.20
2023-04-15T19:36:43.363Z,1.20
2023-04-15T19:40:47.646Z,1.25
2023-04-15T19:44:50.551Z,1.20
2023-04-15T19:48:53.834Z,1.10
2023-04-15T19:52:56.778Z,1.20
2023-04-15T19:57:01.578Z,1.27
2023-04-15T20:01:04.610Z,1.30
2023-04-15T20:05:09.974Z,1.25
2023-04-15T20:09:12.974Z,1.20
2023-04-15T20:13:17.488Z,1.20
2023-04-15T20:17:20.459Z,0.93
2023-04-15T20:21:23.528Z,1.13
2023-04-15T20:25:26.725Z,1.25
2023-04-15T20:29:31.165Z,0.90
2023-04-15T20:33:34.080Z,1.20
2023-04-15T20:37:38.337Z,1.30
2023-04-15T20:41:41.329Z,1.20
2023-04-15T20:45:45.663Z,1.52
2023-04-15T20:49:48.613Z,1.50
2023-04-15T20:53:51.534Z,1.45
2023-04-15T20:57:54.561Z,1.33
2023-04-15T21:01:58.923Z,1.30
2023-04-15T21:06:01.930Z,1.13
2023-04-15T21:10:05.271Z,1.50
2023-04-15T21:14:09.214Z,1.20
2023-04-15T21:18:13.626Z,1.30
2023-04-15T21:22:16.630Z,1.30
2023-04-15T21:26:19.574Z,1.10
2023-04-15T21:30:23.733Z,1.02
2023-04-15T21:34:28.075Z,1.00
2023-04-15T21:38:30.977Z,1.02
2023-04-15T21:42:33.880Z,1.00
2023-04-15T21:46:36.911Z,1.10
2023-04-15T21:50:41.298Z,1.10
2023-04-15T21:54:44.195Z,0.88
2023-04-15T21:58:47.111Z,0.90
2023-04-15T22:02:50.380Z,0.90
2023-04-15T22:06:55.795Z,1.10
2023-04-15T22:10:58.950Z,0.90
2023-04-15T22:15:02.586Z,0.80
2023-04-15T22:19:05.845Z,1.10
2023-04-15T22:23:10.736Z,1.00
2023-04-15T22:27:13.822Z,1.20
2023-04-15T22:31:16.865Z,1.42
2023-04-15T22:35:19.987Z,1.30
2023-04-15T22:39:24.395Z,2.40
2023-04-15T22:43:27.664Z,2.45
2023-04-15T22:47:30.956Z,2.55
2023-04-15T22:51:34.058Z,3.08
2023-04-15T22:55:38.504Z,2.40
2023-04-15T22:59:41.713Z,2.90
2023-04-15T23:03:57.086Z,2.85
2023-04-15T23:08:06.232Z,2.70
2023-04-15T23:12:10.649Z,3.35
2023-04-15T23:16:13.913Z,3.20
2023-04-15T23:20:17.388Z,2.72
2023-04-15T23:24:20.672Z,3.15
2023-04-15T23:28:25.198Z,3.03
2023-04-15T23:32:28.510Z,3.00
2023-04-15T23:36:31.862Z,3.00
2023-04-15T23:40:35.125Z,3.83
2023-04-15T23:44:39.607Z,3.30
2023-04-15T23:48:42.875Z,2.92
2023-04-15T23:52:46.064Z,3.13
2023-04-15T23:56:49.277Z,3.22
